sensor_id;sensor_type;location;lat;lon;timestamp;pressure;altitude;pressure_sealevel;temperature;humidity
30421;BME280;17218;54.070;10.012;2022-10-26T00:01:18;101365.06;;;11.28;100.00
30421;BME280;17218;54.070;10.012;2022-10-26T00:03:45;101376.28;;;11.22;100.00
30421;BME280;17218;54.070;10.012;2022-10-26T00:06:13;101377.13;;;11.19;100.00
30421;BME280;17218;54.070;10.012;2022-10-26T00:08:41;101370.25;;;11.17;100.00
30421;BME280;17218;54.070;10.012;2022-10-26T00:11:08;101373.66;;;11.08;100.00
30421;BME280;17218;54.070;10.012;2022-10-26T00:13:35;101371.06;;;11.09;100.00
30421;BME280;17218;54.070;10.012;2022-10-26T00:16:08;101384.06;;;11.11;100.00
30421;BME280;17218;54.070;10.012;2022-10-26T00:18:34;101378.00;;;11.14;100.00
30421;BME280;17218;54.070;10.012;2022-10-26T00:21:02;101382.31;;;11.10;100.00
30421;BME280;17218;54.070;10.012;2022-10-26T00:23:29;101382.31;;;11.08;100.00
30421;BME280;17218;54.070;10.012;2022-10-26T00:25:56;101384.06;;;11.00;100.00
30421;BME280;17218;54.070;10.012;2022-10-26T00:28:23;101376.25;;;10.92;100.00
30421;BME280;17218;54.070;10.012;2022-10-26T00:30:49;101377.97;;;10.95;100.00
30421;BME280;17218;54.070;10.012;2022-10-26T00:33:18;101382.31;;;10.97;100.00
30421;BME280;17218;54.070;10.012;2022-10-26T00:35:46;101375.38;;;10.93;100.00
30421;BME280;17218;54.070;10.012;2022-10-26T00:38:13;101378.84;;;10.89;100.00
30421;BME280;17218;54.070;10.012;2022-10-26T00:40:40;101383.16;;;10.89;100.00
30421;BME280;17218;54.070;10.012;2022-10-26T00:43:13;101397.84;;;10.85;100.00
30421;BME280;17218;54.070;10.012;2022-10-26T00:45:42;101384.91;;;10.83;100.00
30421;BME280;17218;54.070;10.012;2022-10-26T00:48:13;101384.91;;;10.85;100.00
30421;BME280;17218;54.070;10.012;2022-10-26T00:50:46;101396.97;;;10.83;100.00
30421;BME280;17218;54.070;10.012;2022-10-26T00:53:13;101397.81;;;10.79;100.00
30421;BME280;17218;54.070;10.012;2022-10-26T00:55:43;101384.88;;;10.79;100.00
30421;BME280;17218;54.070;10.012;2022-10-26T00:58:11;101384.88;;;10.74;100.00
30421;BME280;17218;54.070;10.012;2022-10-26T01:00:39;101385.72;;;10.73;100.00
30421;BME280;17218;54.070;10.012;2022-10-26T01:03:08;101393.50;;;10.73;100.00
30421;BME280;17218;54.070;10.012;2022-10-26T01:05:37;101397.84;;;10.74;100.00
30421;BME280;17218;54.070;10.012;2022-10-26T01:08:07;101396.09;;;10.68;100.00
30421;BME280;17218;54.070;10.012;2022-10-26T01:10:34;101398.66;;;10.60;100.00
30421;BME280;17218;54.070;10.012;2022-10-26T01:13:02;101390.00;;;10.60;100.00
30421;BME280;17218;54.070;10.012;2022-10-26T01:15:36;101401.22;;;10.60;100.00
30421;BME280;17218;54.070;10.012;2022-10-26T01:18:09;101396.94;;;10.59;100.00
30421;BME280;17218;54.070;10.012;2022-10-26T01:21:00;101397.78;;;10.61;100.00
30421;BME280;17218;54.070;10.012;2022-10-26T01:23:37;101388.28;;;10.62;100.00
30421;BME280;17218;54.070;10.012;2022-10-26T01:26:31;101388.28;;;10.64;100.00
30421;BME280;17218;54.070;10.012;2022-10-26T01:29:43;101391.72;;;10.53;100.00
30421;BME280;17218;54.070;10.012;2022-10-26T01:32:18;101376.09;;;10.45;100.00
30421;BME280;17218;54.070;10.012;2022-10-26T01:34:52;101375.22;;;10.43;100.00
30421;BME280;17218;54.070;10.012;2022-10-26T01:37:23;101383.88;;;10.42;100.00
30421;BME280;17218;54.070;10.012;2022-10-26T01:39:54;101380.41;;;10.40;100.00
30421;BME280;17218;54.070;10.012;2022-10-26T01:42:25;101389.91;;;10.38;100.00
30421;BME280;17218;54.070;10.012;2022-10-26T01:44:56;101384.72;;;10.41;100.00
30421;BME280;17218;54.070;10.012;2022-10-26T01:47:27;101380.41;;;10.42;100.00
30421;BME280;17218;54.070;10.012;2022-10-26T01:49:57;101374.38;;;10.46;100.00
30421;BME280;17218;54.070;10.012;2022-10-26T01:52:24;101383.88;;;10.41;100.00
30421;BME280;17218;54.070;10.012;2022-10-26T01:54:58;101373.50;;;10.41;100.00
30421;BME280;17218;54.070;10.012;2022-10-26T01:57:25;101370.06;;;10.42;100.00
30421;BME280;17218;54.070;10.012;2022-10-26T02:00:03;101370.88;;;10.34;100.00
30421;BME280;17218;54.070;10.012;2022-10-26T02:02:56;101370.94;;;10.39;100.00
30421;BME280;17218;54.070;10.012;2022-10-26T02:05:32;101370.88;;;10.34;100.00
30421;BME280;17218;54.070;10.012;2022-10-26T02:08:11;101373.47;;;10.34;100.00
30421;BME280;17218;54.070;10.012;2022-10-26T02:10:46;101364.84;;;10.31;100.00
30421;BME280;17218;54.070;10.012;2022-10-26T02:13:17;101370.88;;;10.30;100.00
30421;BME280;17218;54.070;10.012;2022-10-26T02:15:52;101368.25;;;10.25;100.00
30421;BME280;17218;54.070;10.012;2022-10-26T02:18:26;101364.78;;;10.21;100.00
30421;BME280;17218;54.070;10.012;2022-10-26T02:20:59;101358.75;;;10.18;100.00
30421;BME280;17218;54.070;10.012;2022-10-26T02:23:30;101363.03;;;10.14;100.00
30421;BME280;17218;54.070;10.012;2022-10-26T02:26:00;101347.50;;;10.09;100.00
30421;BME280;17218;54.070;10.012;2022-10-26T02:28:32;101352.63;;;10.06;100.00
30421;BME280;17218;54.070;10.012;2022-10-26T02:31:01;101347.47;;;10.06;100.00
30421;BME280;17218;54.070;10.012;2022-10-26T02:33:34;101345.75;;;10.04;100.00
30421;BME280;17218;54.070;10.012;2022-10-26T02:36:04;101339.69;;;10.03;100.00
30421;BME280;17218;54.070;10.012;2022-10-26T02:38:33;101341.41;;;9.98;100.00
30421;BME280;17218;54.070;10.012;2022-10-26T02:41:01;101346.56;;;9.95;100.00
30421;BME280;17218;54.070;10.012;2022-10-26T02:43:29;101355.16;;;9.89;100.00
30421;BME280;17218;54.070;10.012;2022-10-26T02:46:03;101354.28;;;9.85;100.00
30421;BME280;17218;54.070;10.012;2022-10-26T02:48:32;101349.94;;;9.81;100.00
30421;BME280;17218;54.070;10.012;2022-10-26T02:51:01;101344.75;;;9.80;100.00
30421;BME280;17218;54.070;10.012;2022-10-26T02:53:34;101342.16;;;9.78;100.00
30421;BME280;17218;54.070;10.012;2022-10-26T02:56:08;101345.56;;;9.72;100.00
30421;BME280;17218;54.070;10.012;2022-10-26T02:58:39;101346.41;;;9.66;100.00
30421;BME280;17218;54.070;10.012;2022-10-26T03:01:09;101333.47;;;9.63;100.00
30421;BME280;17218;54.070;10.012;2022-10-26T03:03:37;101332.53;;;9.60;100.00
30421;BME280;17218;54.070;10.012;2022-10-26T03:06:03;101342.88;;;9.58;100.00
30421;BME280;17218;54.070;10.012;2022-10-26T03:08:30;101348.94;;;9.56;100.00
30421;BME280;17218;54.070;10.012;2022-10-26T03:13:25;101356.63;;;9.51;100.00
30421;BME280;17218;54.070;10.012;2022-10-26T03:15:54;101348.84;;;9.43;100.00
30421;BME280;17218;54.070;10.012;2022-10-26T03:18:20;101352.22;;;9.36;100.00
30421;BME280;17218;54.070;10.012;2022-10-26T03:20:48;101348.72;;;9.32;100.00
30421;BME280;17218;54.070;10.012;2022-10-26T03:23:15;101353.91;;;9.30;100.00
30421;BME280;17218;54.070;10.012;2022-10-26T03:25:41;101354.69;;;9.23;100.00
30421;BME280;17218;54.070;10.012;2022-10-26T03:28:08;101362.44;;;9.20;100.00
30421;BME280;17218;54.070;10.012;2022-10-26T03:30:34;101357.25;;;9.18;100.00
30421;BME280;17218;54.070;10.012;2022-10-26T03:33:01;101352.03;;;9.14;100.00
30421;BME280;17218;54.070;10.012;2022-10-26T03:35:27;101370.13;;;9.11;100.00
30421;BME280;17218;54.070;10.012;2022-10-26T03:37:55;101363.22;;;9.10;100.00
30421;BME280;17218;54.070;10.012;2022-10-26T03:40:22;101357.97;;;9.02;100.00
30421;BME280;17218;54.070;10.012;2022-10-26T03:42:48;101362.25;;;8.98;100.00
30421;BME280;17218;54.070;10.012;2022-10-26T03:45:15;101361.38;;;8.94;100.00
30421;BME280;17218;54.070;10.012;2022-10-26T03:47:42;101361.34;;;8.93;100.00
30421;BME280;17218;54.070;10.012;2022-10-26T03:50:10;101363.03;;;8.89;100.00
30421;BME280;17218;54.070;10.012;2022-10-26T03:52:37;101364.75;;;8.87;100.00
30421;BME280;17218;54.070;10.012;2022-10-26T03:55:06;101368.22;;;8.89;100.00
30421;BME280;17218;54.070;10.012;2022-10-26T03:57:33;101363.97;;;8.98;100.00
30421;BME280;17218;54.070;10.012;2022-10-26T03:59:59;101362.28;;;9.01;100.00
30421;BME280;17218;54.070;10.012;2022-10-26T04:02:26;101367.44;;;9.03;100.00
30421;BME280;17218;54.070;10.012;2022-10-26T04:04:52;101370.03;;;9.04;100.00
30421;BME280;17218;54.070;10.012;2022-10-26T04:07:19;101365.81;;;9.10;100.00
30421;BME280;17218;54.070;10.012;2022-10-26T04:09:45;101364.09;;;9.12;100.00
30421;BME280;17218;54.070;10.012;2022-10-26T04:12:13;101364.97;;;9.14;100.00
30421;BME280;17218;54.070;10.012;2022-10-26T04:14:39;101363.25;;;9.14;100.00
30421;BME280;17218;54.070;10.012;2022-10-26T04:17:06;101358.94;;;9.13;100.00
30421;BME280;17218;54.070;10.012;2022-10-26T04:19:32;101364.97;;;9.15;100.00
30421;BME280;17218;54.070;10.012;2022-10-26T04:21:59;101363.25;;;9.13;100.00
30421;BME280;17218;54.070;10.012;2022-10-26T04:24:25;101365.81;;;9.11;100.00
30421;BME280;17218;54.070;10.012;2022-10-26T04:26:52;101361.53;;;9.13;100.00
30421;BME280;17218;54.070;10.012;2022-10-26T04:29:20;101363.25;;;9.14;100.00
30421;BME280;17218;54.070;10.012;2022-10-26T04:31:46;101359.78;;;9.14;100.00
30421;BME280;17218;54.070;10.012;2022-10-26T04:34:13;101362.38;;;9.15;100.00
30421;BME280;17218;54.070;10.012;2022-10-26T04:36:39;101361.53;;;9.13;100.00
30421;BME280;17218;54.070;10.012;2022-10-26T04:39:06;101364.13;;;9.13;100.00
30421;BME280;17218;54.070;10.012;2022-10-26T04:41:32;101363.25;;;9.14;100.00
30421;BME280;17218;54.070;10.012;2022-10-26T04:43:58;101358.91;;;9.10;100.00
30421;BME280;17218;54.070;10.012;2022-10-26T04:46:27;101370.97;;;9.10;100.00
30421;BME280;17218;54.070;10.012;2022-10-26T04:48:53;101369.25;;;9.10;100.00
30421;BME280;17218;54.070;10.012;2022-10-26T04:51:20;101370.94;;;9.08;100.00
30421;BME280;17218;54.070;10.012;2022-10-26T04:53:46;101370.94;;;9.08;100.00
30421;BME280;17218;54.070;10.012;2022-10-26T04:56:13;101367.47;;;9.04;100.00
30421;BME280;17218;54.070;10.012;2022-10-26T04:58:39;101373.50;;;9.03;100.00
30421;BME280;17218;54.070;10.012;2022-10-26T05:01:06;101374.38;;;9.02;100.00
30421;BME280;17218;54.070;10.012;2022-10-26T05:03:33;101382.94;;;9.00;100.00
30421;BME280;17218;54.070;10.012;2022-10-26T05:06:00;101381.16;;;8.94;100.00
30421;BME280;17218;54.070;10.012;2022-10-26T05:08:27;101368.22;;;8.91;100.00
30421;BME280;17218;54.070;10.012;2022-10-26T05:10:54;101377.66;;;8.86;100.00
30421;BME280;17218;54.070;10.012;2022-10-26T05:13:21;101361.25;;;8.82;100.00
30421;BME280;17218;54.070;10.012;2022-10-26T05:15:47;101373.28;;;8.80;100.00
30421;BME280;17218;54.070;10.012;2022-10-26T05:18:14;101374.97;;;8.78;100.00
30421;BME280;17218;54.070;10.012;2022-10-26T05:20:41;101370.72;;;8.81;100.00
30421;BME280;17218;54.070;10.012;2022-10-26T05:23:10;101372.44;;;8.82;100.00
30421;BME280;17218;54.070;10.012;2022-10-26T05:25:38;101365.47;;;8.75;100.00
30421;BME280;17218;54.070;10.012;2022-10-26T05:28:05;101359.41;;;8.75;100.00
30421;BME280;17218;54.070;10.012;2022-10-26T05:30:33;101367.16;;;8.71;100.00
30421;BME280;17218;54.070;10.012;2022-10-26T05:33:00;101362.88;;;8.72;100.00
30421;BME280;17218;54.070;10.012;2022-10-26T05:35:29;101362.88;;;8.74;100.00
30421;BME280;17218;54.070;10.012;2022-10-26T05:37:57;101366.31;;;8.74;100.00
30421;BME280;17218;54.070;10.012;2022-10-26T05:40:24;101365.44;;;8.70;100.00
30421;BME280;17218;54.070;10.012;2022-10-26T05:42:51;101357.63;;;8.67;100.00
30421;BME280;17218;54.070;10.012;2022-10-26T05:45:18;101361.84;;;8.57;100.00
30421;BME280;17218;54.070;10.012;2022-10-26T05:47:45;101366.94;;;8.54;100.00
30421;BME280;17218;54.070;10.012;2022-10-26T05:50:12;101376.41;;;8.52;100.00
30421;BME280;17218;54.070;10.012;2022-10-26T05:52:40;101372.06;;;8.51;100.00
30421;BME280;17218;54.070;10.012;2022-10-26T05:55:09;101367.84;;;8.56;100.00
30421;BME280;17218;54.070;10.012;2022-10-26T05:57:37;101379.00;;;8.55;100.00
30421;BME280;17218;54.070;10.012;2022-10-26T06:00:06;101376.41;;;8.52;100.00
30421;BME280;17218;54.070;10.012;2022-10-26T06:02:39;101388.38;;;8.47;100.00
30421;BME280;17218;54.070;10.012;2022-10-26T06:05:09;101380.69;;;8.53;100.00
30421;BME280;17218;54.070;10.012;2022-10-26T06:07:40;101371.31;;;8.58;100.00
30421;BME280;17218;54.070;10.012;2022-10-26T06:10:10;101372.19;;;8.59;100.00
30421;BME280;17218;54.070;10.012;2022-10-26T06:12:37;101378.19;;;8.56;100.00
30421;BME280;17218;54.070;10.012;2022-10-26T06:15:04;101385.13;;;8.61;100.00
30421;BME280;17218;54.070;10.012;2022-10-26T06:17:44;101391.16;;;8.63;100.00
30421;BME280;17218;54.070;10.012;2022-10-26T06:20:30;101384.28;;;8.63;100.00
30421;BME280;17218;54.070;10.012;2022-10-26T06:23:09;101387.72;;;8.62;100.00
30421;BME280;17218;54.070;10.012;2022-10-26T06:25:45;101389.47;;;8.63;100.00
30421;BME280;17218;54.070;10.012;2022-10-26T06:28:24;101396.34;;;8.63;100.00
30421;BME280;17218;54.070;10.012;2022-10-26T06:30:53;101398.91;;;8.61;100.00
30421;BME280;17218;54.070;10.012;2022-10-26T06:33:20;101404.09;;;8.66;100.00
30421;BME280;17218;54.070;10.012;2022-10-26T06:35:53;101396.41;;;8.69;100.00
30421;BME280;17218;54.070;10.012;2022-10-26T06:38:22;101399.00;;;8.69;100.00
30421;BME280;17218;54.070;10.012;2022-10-26T06:40:54;101402.44;;;8.71;100.00
30421;BME280;17218;54.070;10.012;2022-10-26T06:43:23;101392.16;;;8.73;100.00
30421;BME280;17218;54.070;10.012;2022-10-26T06:45:54;101397.28;;;8.71;100.00
30421;BME280;17218;54.070;10.012;2022-10-26T06:48:24;101409.28;;;8.67;100.00
30421;BME280;17218;54.070;10.012;2022-10-26T06:50:54;101408.44;;;8.67;100.00
30421;BME280;17218;54.070;10.012;2022-10-26T06:53:24;101411.94;;;8.72;100.00
30421;BME280;17218;54.070;10.012;2022-10-26T06:55:54;101416.22;;;8.71;100.00
30421;BME280;17218;54.070;10.012;2022-10-26T06:58:24;101419.66;;;8.69;100.00
30421;BME280;17218;54.070;10.012;2022-10-26T07:00:53;101417.97;;;8.73;100.00
30421;BME280;17218;54.070;10.012;2022-10-26T07:03:20;101412.78;;;8.71;100.00
30421;BME280;17218;54.070;10.012;2022-10-26T07:05:48;101406.78;;;8.72;100.00
30421;BME280;17218;54.070;10.012;2022-10-26T07:08:14;101412.84;;;8.77;100.00
30421;BME280;17218;54.070;10.012;2022-10-26T07:10:41;101414.53;;;8.75;100.00
30421;BME280;17218;54.070;10.012;2022-10-26T07:13:09;101413.81;;;8.86;100.00
30421;BME280;17218;54.070;10.012;2022-10-26T07:15:36;101412.97;;;8.90;100.00
30421;BME280;17218;54.070;10.012;2022-10-26T07:18:05;101417.25;;;8.88;100.00
30421;BME280;17218;54.070;10.012;2022-10-26T07:20:35;101422.44;;;8.88;100.00
30421;BME280;17218;54.070;10.012;2022-10-26T07:23:02;101423.38;;;8.93;100.00
30421;BME280;17218;54.070;10.012;2022-10-26T07:25:31;101422.47;;;8.91;100.00
30421;BME280;17218;54.070;10.012;2022-10-26T07:27:58;101427.66;;;8.92;100.00
30421;BME280;17218;54.070;10.012;2022-10-26T07:30:27;101430.28;;;8.97;100.00
30421;BME280;17218;54.070;10.012;2022-10-26T07:32:58;101425.19;;;9.03;100.00
30421;BME280;17218;54.070;10.012;2022-10-26T07:35:24;101427.00;;;9.14;100.00
30421;BME280;17218;54.070;10.012;2022-10-26T07:37:55;101421.97;;;9.26;100.00
30421;BME280;17218;54.070;10.012;2022-10-26T07:40:21;101428.06;;;9.35;100.00
30421;BME280;17218;54.070;10.012;2022-10-26T07:42:48;101429.00;;;9.43;100.00
30421;BME280;17218;54.070;10.012;2022-10-26T07:45:14;101436.88;;;9.57;100.00
30421;BME280;17218;54.070;10.012;2022-10-26T07:47:42;101425.75;;;9.69;100.00
30421;BME280;17218;54.070;10.012;2022-10-26T07:50:10;101427.50;;;9.73;100.00
30421;BME280;17218;54.070;10.012;2022-10-26T07:52:37;101424.09;;;9.82;100.00
30421;BME280;17218;54.070;10.012;2022-10-26T07:55:06;101429.34;;;9.93;100.00
30421;BME280;17218;54.070;10.012;2022-10-26T07:57:33;101425.97;;;10.02;100.00
30421;BME280;17218;54.070;10.012;2022-10-26T08:00:00;101427.81;;;10.19;100.00
30421;BME280;17218;54.070;10.012;2022-10-26T08:02:27;101432.16;;;10.28;100.00
30421;BME280;17218;54.070;10.012;2022-10-26T08:04:54;101430.50;;;10.39;100.00
30421;BME280;17218;54.070;10.012;2022-10-26T08:07:21;101434.00;;;10.50;100.00
30421;BME280;17218;54.070;10.012;2022-10-26T08:09:50;101440.13;;;10.67;100.00
30421;BME280;17218;54.070;10.012;2022-10-26T08:12:16;101432.38;;;10.79;100.00
30421;BME280;17218;54.070;10.012;2022-10-26T08:14:43;101435.88;;;10.94;100.00
30421;BME280;17218;54.070;10.012;2022-10-26T08:17:10;101439.34;;;11.02;100.00
30421;BME280;17218;54.070;10.012;2022-10-26T08:19:36;101442.81;;;11.15;100.00
30421;BME280;17218;54.070;10.012;2022-10-26T08:22:04;101438.53;;;11.25;100.00
30421;BME280;17218;54.070;10.012;2022-10-26T08:24:31;101435.09;;;11.29;100.00
30421;BME280;17218;54.070;10.012;2022-10-26T08:26:58;101432.50;;;11.29;100.00
30421;BME280;17218;54.070;10.012;2022-10-26T08:29:24;101426.44;;;11.37;100.00
30421;BME280;17218;54.070;10.012;2022-10-26T08:31:51;101428.16;;;11.49;100.00
30421;BME280;17218;54.070;10.012;2022-10-26T08:34:17;101424.69;;;11.56;100.00
30421;BME280;17218;54.070;10.012;2022-10-26T08:36:43;101421.22;;;11.62;100.00
30421;BME280;17218;54.070;10.012;2022-10-26T08:39:12;101420.38;;;11.67;100.00
30421;BME280;17218;54.070;10.012;2022-10-26T08:41:41;101425.56;;;11.72;100.00
30421;BME280;17218;54.070;10.012;2022-10-26T08:44:21;101418.66;;;11.68;100.00
30421;BME280;17218;54.070;10.012;2022-10-26T08:46:53;101425.56;;;11.64;100.00
30421;BME280;17218;54.070;10.012;2022-10-26T08:49:23;101426.44;;;11.60;100.00
30421;BME280;17218;54.070;10.012;2022-10-26T08:51:54;101413.47;;;11.66;100.00
30421;BME280;17218;54.070;10.012;2022-10-26T08:54:32;101412.56;;;11.83;100.00
30421;BME280;17218;54.070;10.012;2022-10-26T08:57:03;101406.50;;;11.98;100.00
30421;BME280;17218;54.070;10.012;2022-10-26T08:59:39;101404.72;;;11.99;100.00
30421;BME280;17218;54.070;10.012;2022-10-26T09:02:11;101409.91;;;12.05;100.00
30421;BME280;17218;54.070;10.012;2022-10-26T09:04:38;101406.47;;;12.11;100.00
30421;BME280;17218;54.070;10.012;2022-10-26T09:07:08;101398.66;;;12.14;100.00
30421;BME280;17218;54.070;10.012;2022-10-26T09:09:44;101402.13;;;12.24;100.00
30421;BME280;17218;54.070;10.012;2022-10-26T09:12:19;101403.81;;;12.30;100.00
30421;BME280;17218;54.070;10.012;2022-10-26T09:14:59;101404.63;;;12.43;100.00
30421;BME280;17218;54.070;10.012;2022-10-26T09:17:36;101393.28;;;12.56;100.00
30421;BME280;17218;54.070;10.012;2022-10-26T09:20:44;101393.19;;;12.75;100.00
30421;BME280;17218;54.070;10.012;2022-10-26T09:23:26;101394.84;;;12.85;100.00
30421;BME280;17218;54.070;10.012;2022-10-26T09:25:59;101388.75;;;12.96;100.00
30421;BME280;17218;54.070;10.012;2022-10-26T09:28:28;101384.31;;;13.06;100.00
30421;BME280;17218;54.070;10.012;2022-10-26T09:30:57;101390.31;;;13.16;100.00
30421;BME280;17218;54.070;10.012;2022-10-26T09:33:24;101391.16;;;13.21;100.00
30421;BME280;17218;54.070;10.012;2022-10-26T09:35:54;101388.47;;;13.30;100.00
30421;BME280;17218;54.070;10.012;2022-10-26T09:38:24;101388.50;;;13.29;100.00
30421;BME280;17218;54.070;10.012;2022-10-26T09:40:57;101381.53;;;13.32;100.00
30421;BME280;17218;54.070;10.012;2022-10-26T09:43:29;101390.97;;;13.46;100.00
30421;BME280;17218;54.070;10.012;2022-10-26T09:45:57;101380.44;;;13.60;100.00
30421;BME280;17218;54.070;10.012;2022-10-26T09:48:28;101376.81;;;13.75;100.00
30421;BME280;17218;54.070;10.012;2022-10-26T09:50:56;101388.03;;;13.82;100.00
30421;BME280;17218;54.070;10.012;2022-10-26T09:53:24;101394.97;;;13.83;100.00
30421;BME280;17218;54.070;10.012;2022-10-26T09:56:00;101388.00;;;13.85;100.00
30421;BME280;17218;54.070;10.012;2022-10-26T09:58:34;101389.59;;;13.97;100.00
30421;BME280;17218;54.070;10.012;2022-10-26T10:01:01;101398.94;;;14.15;100.00
30421;BME280;17218;54.070;10.012;2022-10-26T10:03:30;101393.53;;;14.34;100.00
30421;BME280;17218;54.070;10.012;2022-10-26T10:06:14;101396.06;;;14.39;100.00
30421;BME280;17218;54.070;10.012;2022-10-26T10:08:42;101396.88;;;14.42;100.00
30421;BME280;17218;54.070;10.012;2022-10-26T10:11:12;101392.53;;;14.43;100.00
30421;BME280;17218;54.070;10.012;2022-10-26T10:13:41;101392.47;;;14.49;100.00
30421;BME280;17218;54.070;10.012;2022-10-26T10:16:11;101381.13;;;14.52;100.00
30421;BME280;17218;54.070;10.012;2022-10-26T10:18:39;101376.75;;;14.54;100.00
30421;BME280;17218;54.070;10.012;2022-10-26T10:21:07;101378.50;;;14.52;100.00
30421;BME280;17218;54.070;10.012;2022-10-26T10:23:36;101386.25;;;14.58;100.00
30421;BME280;17218;54.070;10.012;2022-10-26T10:26:11;101377.50;;;14.64;100.00
30421;BME280;17218;54.070;10.012;2022-10-26T10:28:40;101377.38;;;14.70;100.00
30421;BME280;17218;54.070;10.012;2022-10-26T10:31:18;101378.13;;;14.82;100.00
30421;BME280;17218;54.070;10.012;2022-10-26T10:33:46;101381.47;;;14.92;100.00
30421;BME280;17218;54.070;10.012;2022-10-26T10:36:15;101380.41;;;15.03;100.00
30421;BME280;17218;54.070;10.012;2022-10-26T10:38:44;101375.03;;;15.13;100.00
30421;BME280;17218;54.070;10.012;2022-10-26T10:41:17;101382.66;;;15.27;100.00
30421;BME280;17218;54.070;10.012;2022-10-26T10:43:48;101380.63;;;15.43;100.00
30421;BME280;17218;54.070;10.012;2022-10-26T10:46:20;101375.31;;;15.49;100.00
30421;BME280;17218;54.070;10.012;2022-10-26T10:48:51;101375.09;;;15.62;100.00
30421;BME280;17218;54.070;10.012;2022-10-26T10:51:20;101379.31;;;15.69;100.00
30421;BME280;17218;54.070;10.012;2022-10-26T10:53:49;101367.06;;;15.73;100.00
30421;BME280;17218;54.070;10.012;2022-10-26T10:56:26;101369.34;;;15.90;100.00
30421;BME280;17218;54.070;10.012;2022-10-26T10:59:12;101377.09;;;15.95;100.00
30421;BME280;17218;54.070;10.012;2022-10-26T11:01:47;101377.91;;;15.97;100.00
30421;BME280;17218;54.070;10.012;2022-10-26T11:04:33;101385.69;;;16.02;100.00
30421;BME280;17218;54.070;10.012;2022-10-26T11:07:03;101373.41;;;16.07;100.00
30421;BME280;17218;54.070;10.012;2022-10-26T11:09:33;101376.72;;;16.15;100.00
30421;BME280;17218;54.070;10.012;2022-10-26T11:12:05;101371.38;;;16.21;100.00
30421;BME280;17218;54.070;10.012;2022-10-26T11:14:38;101367.78;;;16.26;100.00
30421;BME280;17218;54.070;10.012;2022-10-26T11:17:12;101376.16;;;16.42;100.00
30421;BME280;17218;54.070;10.012;2022-10-26T11:19:42;101375.97;;;16.50;100.00
30421;BME280;17218;54.070;10.012;2022-10-26T11:22:14;101382.38;;;16.76;100.00
30421;BME280;17218;54.070;10.012;2022-10-26T11:24:44;101376.88;;;16.87;100.00
30421;BME280;17218;54.070;10.012;2022-10-26T11:27:15;101383.00;;;17.24;100.00
30421;BME280;17218;54.070;10.012;2022-10-26T11:29:48;101378.69;;;17.58;100.00
30421;BME280;17218;54.070;10.012;2022-10-26T11:32:21;101372.34;;;18.88;100.00
30421;BME280;17218;54.070;10.012;2022-10-26T11:34:52;101366.50;;;19.83;100.00
30421;BME280;17218;54.070;10.012;2022-10-26T11:37:27;101368.34;;;21.80;100.00
30421;BME280;17218;54.070;10.012;2022-10-26T11:40:01;101354.97;;;24.01;100.00
30421;BME280;17218;54.070;10.012;2022-10-26T11:42:32;101363.09;;;26.12;93.51
30421;BME280;17218;54.070;10.012;2022-10-26T11:45:08;101358.38;;;28.16;59.37
30421;BME280;17218;54.070;10.012;2022-10-26T11:47:39;101356.16;;;29.76;53.91
30421;BME280;17218;54.070;10.012;2022-10-26T11:50:13;101356.69;;;30.80;46.70
30421;BME280;17218;54.070;10.012;2022-10-26T11:52:44;101353.53;;;31.08;43.27
30421;BME280;17218;54.070;10.012;2022-10-26T11:55:12;101359.16;;;30.72;43.63
30421;BME280;17218;54.070;10.012;2022-10-26T11:57:39;101352.91;;;30.83;43.57
30421;BME280;17218;54.070;10.012;2022-10-26T12:00:14;101348.72;;;30.47;46.85
30421;BME280;17218;54.070;10.012;2022-10-26T12:02:45;101348.75;;;31.74;43.72
30421;BME280;17218;54.070;10.012;2022-10-26T12:05:19;101354.03;;;32.85;40.58
30421;BME280;17218;54.070;10.012;2022-10-26T12:07:49;101353.38;;;32.73;39.35
30421;BME280;17218;54.070;10.012;2022-10-26T12:10:24;101355.28;;;31.92;39.38
30421;BME280;17218;54.070;10.012;2022-10-26T12:12:58;101355.28;;;31.92;39.05
30421;BME280;17218;54.070;10.012;2022-10-26T12:15:32;101357.88;;;32.23;39.71
30421;BME280;17218;54.070;10.012;2022-10-26T12:18:08;101361.84;;;32.78;38.64
30421;BME280;17218;54.070;10.012;2022-10-26T12:20:52;101373.31;;;33.08;35.74
30421;BME280;17218;54.070;10.012;2022-10-26T12:23:19;101376.09;;;32.59;36.42
30421;BME280;17218;54.070;10.012;2022-10-26T12:25:47;101369.19;;;31.44;39.16
30421;BME280;17218;54.070;10.012;2022-10-26T12:28:38;101383.91;;;31.28;40.86
30421;BME280;17218;54.070;10.012;2022-10-26T12:31:41;101380.81;;;31.64;41.46
30421;BME280;17218;54.070;10.012;2022-10-26T12:34:11;101376.38;;;31.75;38.11
30421;BME280;17218;54.070;10.012;2022-10-26T12:36:48;101366.84;;;33.01;36.57
30421;BME280;17218;54.070;10.012;2022-10-26T12:39:26;101376.69;;;33.30;36.63
30421;BME280;17218;54.070;10.012;2022-10-26T12:41:57;101381.72;;;32.76;36.67
30421;BME280;17218;54.070;10.012;2022-10-26T12:44:32;101389.19;;;31.81;36.68
30421;BME280;17218;54.070;10.012;2022-10-26T12:47:00;101391.50;;;31.33;38.57
30421;BME280;17218;54.070;10.012;2022-10-26T12:52:45;101387.75;;;29.12;41.75
30421;BME280;17218;54.070;10.012;2022-10-26T12:55:49;101381.53;;;28.40;43.77
30421;BME280;17218;54.070;10.012;2022-10-26T12:58:43;101382.41;;;28.27;45.96